Etusivu
METAR-TAF:

METAR-TAF

Lentoasemat :

Kristiansand, Norja

Kristiansandin lentoasema

Leveyspiiri: 58-12N, Pituuspiiri: 008-05E, korkeus merenpinnasta: 1 m

Tämänhetkinen sää

Tämä raportti tehtiin 26 minuuttia sitten, kello 20.20 UTC
Tuuli 7 kn koillisesta
Lämpötila 16°C
Kosteus 100%
Ilmanpaine 1016 hPa
Näkyvyys: 4500 m
tihkusadetta, utua

METAR: ENCN 212020Z 05007KT 4500 DZ BR VV008 16/16 Q1016

Aika: 22:46 (20:46 UTC)

Sääennuste

Tämä raportti tehtiin 3 tuntia ja 46 minuuttia sitten, kello 17.00 UTC
Ennuste voimassa 21. päivästä klo 18 UTC - 21. päivään klo 21 UTC
Tuuli 8 kn koillisesta
Näkyvyys: 4000 m
Hajonneita pilviä 400 ft:n korkeudessa
heikkoa tihkusadetta, sadetta, utua
Ajoittain
21. päivästä klo 18 UTC - 21. päivään klo 21 UTC
Näkyvyys 10 km tai enemmän
Hajanaisia pilviä 600 ft:n korkeudessa
Hajonneita pilviä 1200 ft:n korkeudessa

TAF: ENCN 211700Z 2118/2121 05008KT 4000 -DZRA BR BKN004 TEMPO 2118/2121 9999 SCT006 BKN012

Säähavainnot ja -ennusteet yli 4000 lentoasemalta (METAR- ja TAF-raportit).

Käytössä olevat sääasemat on merkitty karttaan keltaisilla ja punaisilla pisteillä.

Aseta hiiri pisteen päälle nähdäksesi sääaseman nimen.

Klikkaa sitten nähdäksesi säähavainnot ja -ennusteet.

Kartan vaihtaminen: klikkaa mustalla rastilla varustettuja vihreitä pisteitä, niin voit zoomata sisään; viivalla varustettua vihreää pistettä, niin voit zoomata ulos tai vihreitä nuolia, niin pääset viereisille kartoille.


METAR-TAF: